sensor_id;sensor_type;location;lat;lon;timestamp;pressure;altitude;pressure_sealevel;temperature;humidity
40013;BME280;37387;42.672;23.334;2023-05-20T00:00:35;947.2;;;11.8;100.0
40013;BME280;37387;42.672;23.334;2023-05-20T00:03:35;947.2;;;11.9;100.0
40013;BME280;37387;42.672;23.334;2023-05-20T00:11:35;947.2;;;11.8;100.0
40013;BME280;37387;42.672;23.334;2023-05-20T00:14:35;947.2;;;11.9;100.0
40013;BME280;37387;42.672;23.334;2023-05-20T00:20:35;947.2;;;11.8;100.0
40013;BME280;37387;42.672;23.334;2023-05-20T00:23:35;947.2;;;11.8;100.0
40013;BME280;37387;42.672;23.334;2023-05-20T00:28:35;947.2;;;11.7;100.0
40013;BME280;37387;42.672;23.334;2023-05-20T00:30:38;947.1;;;11.6;100.0
40013;BME280;37387;42.672;23.334;2023-05-20T00:37:34;947.0;;;11.5;100.0
40013;BME280;37387;42.672;23.334;2023-05-20T00:38:35;947.0;;;11.4;100.0
40013;BME280;37387;42.672;23.334;2023-05-20T00:40:34;946.9;;;11.3;100.0
40013;BME280;37387;42.672;23.334;2023-05-20T00:42:34;947.0;;;11.4;100.0
40013;BME280;37387;42.672;23.334;2023-05-20T00:44:34;947.0;;;11.3;100.0
40013;BME280;37387;42.672;23.334;2023-05-20T00:46:35;946.9;;;11.2;100.0
40013;BME280;37387;42.672;23.334;2023-05-20T00:59:35;946.9;;;11.3;100.0
40013;BME280;37387;42.672;23.334;2023-05-20T01:00:35;946.9;;;11.4;100.0
40013;BME280;37387;42.672;23.334;2023-05-20T01:01:35;946.8;;;11.5;100.0
40013;BME280;37387;42.672;23.334;2023-05-20T01:05:35;946.9;;;11.4;100.0
40013;BME280;37387;42.672;23.334;2023-05-20T01:14:35;947.0;;;11.5;100.0
40013;BME280;37387;42.672;23.334;2023-05-20T01:15:35;947.0;;;11.4;100.0
40013;BME280;37387;42.672;23.334;2023-05-20T01:17:36;947.0;;;11.5;100.0
40013;BME280;37387;42.672;23.334;2023-05-20T01:18:35;947.0;;;11.4;100.0
40013;BME280;37387;42.672;23.334;2023-05-20T01:21:35;947.0;;;11.5;100.0
40013;BME280;37387;42.672;23.334;2023-05-20T01:23:36;947.0;;;11.4;100.0
40013;BME280;37387;42.672;23.334;2023-05-20T01:25:35;947.0;;;11.3;100.0
40013;BME280;37387;42.672;23.334;2023-05-20T01:27:35;946.9;;;11.2;100.0
40013;BME280;37387;42.672;23.334;2023-05-20T01:28:36;946.9;;;11.3;100.0
40013;BME280;37387;42.672;23.334;2023-05-20T01:30:36;946.9;;;11.4;100.0
40013;BME280;37387;42.672;23.334;2023-05-20T01:34:35;946.9;;;11.3;100.0
40013;BME280;37387;42.672;23.334;2023-05-20T01:37:35;946.9;;;11.2;100.0
40013;BME280;37387;42.672;23.334;2023-05-20T01:41:35;946.9;;;11.1;100.0
40013;BME280;37387;42.672;23.334;2023-05-20T01:42:35;946.9;;;11.0;100.0
40013;BME280;37387;42.672;23.334;2023-05-20T01:44:35;947.0;;;11.1;100.0
40013;BME280;37387;42.672;23.334;2023-05-20T01:45:35;947.0;;;11.0;100.0
40013;BME280;37387;42.672;23.334;2023-05-20T01:49:35;946.9;;;11.1;100.0
40013;BME280;37387;42.672;23.334;2023-05-20T01:56:35;946.9;;;11.0;100.0
40013;BME280;37387;42.672;23.334;2023-05-20T01:59:35;946.9;;;10.9;100.0
40013;BME280;37387;42.672;23.334;2023-05-20T02:00:35;946.8;;;10.8;100.0
40013;BME280;37387;42.672;23.334;2023-05-20T02:02:35;946.8;;;10.7;100.0
40013;BME280;37387;42.672;23.334;2023-05-20T02:03:35;946.8;;;10.8;100.0
40013;BME280;37387;42.672;23.334;2023-05-20T02:08:35;946.9;;;10.9;100.0
40013;BME280;37387;42.672;23.334;2023-05-20T02:10:35;946.8;;;10.8;100.0
40013;BME280;37387;42.672;23.334;2023-05-20T02:11:36;946.8;;;10.9;100.0
40013;BME280;37387;42.672;23.334;2023-05-20T02:22:35;946.8;;;10.8;100.0
40013;BME280;37387;42.672;23.334;2023-05-20T02:30:35;946.7;;;10.9;100.0
40013;BME280;37387;42.672;23.334;2023-05-20T02:33:35;946.8;;;10.8;100.0
40013;BME280;37387;42.672;23.334;2023-05-20T02:36:35;946.7;;;10.7;100.0
40013;BME280;37387;42.672;23.334;2023-05-20T02:38:35;946.8;;;10.6;100.0
40013;BME280;37387;42.672;23.334;2023-05-20T02:43:35;946.7;;;10.5;100.0
40013;BME280;37387;42.672;23.334;2023-05-20T02:47:35;946.7;;;10.6;100.0
40013;BME280;37387;42.672;23.334;2023-05-20T02:49:35;946.7;;;10.5;100.0
40013;BME280;37387;42.672;23.334;2023-05-20T02:54:35;946.7;;;10.6;100.0
40013;BME280;37387;42.672;23.334;2023-05-20T02:56:35;946.7;;;10.5;100.0
40013;BME280;37387;42.672;23.334;2023-05-20T02:57:35;946.7;;;10.6;100.0
40013;BME280;37387;42.672;23.334;2023-05-20T03:05:35;946.7;;;10.7;100.0
40013;BME280;37387;42.672;23.334;2023-05-20T03:07:35;946.8;;;10.8;100.0
40013;BME280;37387;42.672;23.334;2023-05-20T03:08:35;946.8;;;10.9;100.0
40013;BME280;37387;42.672;23.334;2023-05-20T03:11:35;946.8;;;11.0;100.0
40013;BME280;37387;42.672;23.334;2023-05-20T03:13:35;946.9;;;11.1;100.0
40013;BME280;37387;42.672;23.334;2023-05-20T03:16:35;946.9;;;11.2;100.0
40013;BME280;37387;42.672;23.334;2023-05-20T03:18:35;947.0;;;11.1;100.0
40013;BME280;37387;42.672;23.334;2023-05-20T03:20:35;947.0;;;11.0;100.0
40013;BME280;37387;42.672;23.334;2023-05-20T03:21:35;947.0;;;11.1;100.0
40013;BME280;37387;42.672;23.334;2023-05-20T03:22:35;947.0;;;11.2;100.0
40013;BME280;37387;42.672;23.334;2023-05-20T03:23:35;947.0;;;11.4;100.0
40013;BME280;37387;42.672;23.334;2023-05-20T03:24:35;947.0;;;11.5;100.0
40013;BME280;37387;42.672;23.334;2023-05-20T03:25:35;947.0;;;11.7;100.0
40013;BME280;37387;42.672;23.334;2023-05-20T03:26:35;947.0;;;11.8;100.0
40013;BME280;37387;42.672;23.334;2023-05-20T03:28:35;947.0;;;11.9;100.0
40013;BME280;37387;42.672;23.334;2023-05-20T03:29:35;947.0;;;12.1;100.0
40013;BME280;37387;42.672;23.334;2023-05-20T03:30:35;947.0;;;12.5;100.0
40013;BME280;37387;42.672;23.334;2023-05-20T03:31:35;947.1;;;12.9;100.0
40013;BME280;37387;42.672;23.334;2023-05-20T03:32:35;947.1;;;13.2;100.0
40013;BME280;37387;42.672;23.334;2023-05-20T03:33:35;947.1;;;13.5;100.0
40013;BME280;37387;42.672;23.334;2023-05-20T03:34:35;947.2;;;13.7;100.0
40013;BME280;37387;42.672;23.334;2023-05-20T03:35:35;947.2;;;13.6;100.0
40013;BME280;37387;42.672;23.334;2023-05-20T03:36:35;947.2;;;13.7;100.0
40013;BME280;37387;42.672;23.334;2023-05-20T03:38:35;947.2;;;13.8;100.0
40013;BME280;37387;42.672;23.334;2023-05-20T03:39:35;947.2;;;13.9;100.0
40013;BME280;37387;42.672;23.334;2023-05-20T03:40:35;947.2;;;14.2;100.0
40013;BME280;37387;42.672;23.334;2023-05-20T03:41:35;947.2;;;14.5;100.0
40013;BME280;37387;42.672;23.334;2023-05-20T03:42:35;947.2;;;14.9;100.0
40013;BME280;37387;42.672;23.334;2023-05-20T03:43:35;947.2;;;15.3;100.0
40013;BME280;37387;42.672;23.334;2023-05-20T03:44:35;947.3;;;15.7;100.0
40013;BME280;37387;42.672;23.334;2023-05-20T03:45:35;947.3;;;16.1;100.0
40013;BME280;37387;42.672;23.334;2023-05-20T03:46:35;947.3;;;16.5;100.0
40013;BME280;37387;42.672;23.334;2023-05-20T03:47:35;947.4;;;17.1;100.0
40013;BME280;37387;42.672;23.334;2023-05-20T03:48:35;947.4;;;17.5;100.0
40013;BME280;37387;42.672;23.334;2023-05-20T03:49:35;947.4;;;17.9;100.0
40013;BME280;37387;42.672;23.334;2023-05-20T03:50:35;947.5;;;17.2;100.0
40013;BME280;37387;42.672;23.334;2023-05-20T03:51:35;947.5;;;16.5;100.0
40013;BME280;37387;42.672;23.334;2023-05-20T03:52:35;947.4;;;16.4;100.0
40013;BME280;37387;42.672;23.334;2023-05-20T03:53:35;947.4;;;16.9;100.0
40013;BME280;37387;42.672;23.334;2023-05-20T03:54:35;947.4;;;17.5;100.0
40013;BME280;37387;42.672;23.334;2023-05-20T03:55:35;947.5;;;17.7;100.0
40013;BME280;37387;42.672;23.334;2023-05-20T03:56:35;947.5;;;18.2;100.0
40013;BME280;37387;42.672;23.334;2023-05-20T03:57:35;947.6;;;18.8;87.7
40013;BME280;37387;42.672;23.334;2023-05-20T03:58:35;947.6;;;19.4;87.7
40013;BME280;37387;42.672;23.334;2023-05-20T03:59:35;947.6;;;19.9;83.8
40013;BME280;37387;42.672;23.334;2023-05-20T04:00:35;947.6;;;20.0;74.9
40013;BME280;37387;42.672;23.334;2023-05-20T04:01:35;947.6;;;20.5;70.7
40013;BME280;37387;42.672;23.334;2023-05-20T04:02:35;947.6;;;20.8;66.0
40013;BME280;37387;42.672;23.334;2023-05-20T04:03:35;947.6;;;20.4;66.4
40013;BME280;37387;42.672;23.334;2023-05-20T04:04:35;947.6;;;19.9;66.4
40013;BME280;37387;42.672;23.334;2023-05-20T04:06:35;947.6;;;19.7;69.3
40013;BME280;37387;42.672;23.334;2023-05-20T04:07:35;947.6;;;20.0;69.7
40013;BME280;37387;42.672;23.334;2023-05-20T04:08:35;947.7;;;20.5;69.0
40013;BME280;37387;42.672;23.334;2023-05-20T04:10:35;947.7;;;20.2;66.4
40013;BME280;37387;42.672;23.334;2023-05-20T04:11:35;947.7;;;20.4;66.0
40013;BME280;37387;42.672;23.334;2023-05-20T04:12:35;947.7;;;20.7;66.0
40013;BME280;37387;42.672;23.334;2023-05-20T04:13:35;947.7;;;20.2;64.6
40013;BME280;37387;42.672;23.334;2023-05-20T04:14:35;947.7;;;19.0;65.1
40013;BME280;37387;42.672;23.334;2023-05-20T04:16:35;947.7;;;19.1;72.6
40013;BME280;37387;42.672;23.334;2023-05-20T04:17:35;947.8;;;19.6;70.9
40013;BME280;37387;42.672;23.334;2023-05-20T04:18:35;947.8;;;20.0;70.9
40013;BME280;37387;42.672;23.334;2023-05-20T04:19:35;947.8;;;21.0;69.3
40013;BME280;37387;42.672;23.334;2023-05-20T04:20:35;947.8;;;20.8;65.8
40013;BME280;37387;42.672;23.334;2023-05-20T04:21:35;947.8;;;20.9;64.2
40013;BME280;37387;42.672;23.334;2023-05-20T04:22:35;947.8;;;21.5;64.2
40013;BME280;37387;42.672;23.334;2023-05-20T04:23:35;947.7;;;22.0;60.7
40013;BME280;37387;42.672;23.334;2023-05-20T04:24:35;947.8;;;22.4;58.1
40013;BME280;37387;42.672;23.334;2023-05-20T04:25:35;947.8;;;22.7;57.4
40013;BME280;37387;42.672;23.334;2023-05-20T04:26:35;947.8;;;23.4;55.6
40013;BME280;37387;42.672;23.334;2023-05-20T04:27:35;947.7;;;23.6;55.6
40013;BME280;37387;42.672;23.334;2023-05-20T04:28:35;947.7;;;24.0;53.3
40013;BME280;37387;42.672;23.334;2023-05-20T04:29:35;947.7;;;24.5;51.4
40013;BME280;37387;42.672;23.334;2023-05-20T04:30:35;947.7;;;22.9;50.8
40013;BME280;37387;42.672;23.334;2023-05-20T04:31:35;947.6;;;23.7;52.4
40013;BME280;37387;42.672;23.334;2023-05-20T04:32:35;947.7;;;24.8;51.8
40013;BME280;37387;42.672;23.334;2023-05-20T04:33:35;947.7;;;24.1;48.7
40013;BME280;37387;42.672;23.334;2023-05-20T04:34:35;947.7;;;23.3;48.7
40013;BME280;37387;42.672;23.334;2023-05-20T04:35:35;947.7;;;23.4;51.6
40013;BME280;37387;42.672;23.334;2023-05-20T04:36:35;947.8;;;23.8;50.5
40013;BME280;37387;42.672;23.334;2023-05-20T04:37:35;947.8;;;24.3;50.5
40013;BME280;37387;42.672;23.334;2023-05-20T04:38:35;947.8;;;23.3;49.4
40013;BME280;37387;42.672;23.334;2023-05-20T04:40:35;947.8;;;22.9;52.1
40013;BME280;37387;42.672;23.334;2023-05-20T04:41:35;947.8;;;22.1;53.4
40013;BME280;37387;42.672;23.334;2023-05-20T04:42:35;947.7;;;22.0;54.9
40013;BME280;37387;42.672;23.334;2023-05-20T04:43:35;947.8;;;22.4;56.4
40013;BME280;37387;42.672;23.334;2023-05-20T04:44:35;947.8;;;21.8;56.3
40013;BME280;37387;42.672;23.334;2023-05-20T04:45:35;947.8;;;21.4;57.4
40013;BME280;37387;42.672;23.334;2023-05-20T04:46:35;947.8;;;22.5;59.2
40013;BME280;37387;42.672;23.334;2023-05-20T04:47:35;947.9;;;23.3;53.0
40013;BME280;37387;42.672;23.334;2023-05-20T04:48:35;947.9;;;23.6;53.0
40013;BME280;37387;42.672;23.334;2023-05-20T04:49:35;947.9;;;23.7;52.4
40013;BME280;37387;42.672;23.334;2023-05-20T04:50:35;947.9;;;24.2;52.4
40013;BME280;37387;42.672;23.334;2023-05-20T04:51:35;947.9;;;25.0;49.6
40013;BME280;37387;42.672;23.334;2023-05-20T04:52:35;947.9;;;24.6;49.6
40013;BME280;37387;42.672;23.334;2023-05-20T04:53:35;947.9;;;23.1;48.8
40013;BME280;37387;42.672;23.334;2023-05-20T04:54:35;947.9;;;22.1;56.5
40013;BME280;37387;42.672;23.334;2023-05-20T04:55:35;947.9;;;21.1;56.5
40013;BME280;37387;42.672;23.334;2023-05-20T04:56:35;947.9;;;22.2;58.6
40013;BME280;37387;42.672;23.334;2023-05-20T04:57:35;947.9;;;23.5;58.6
40013;BME280;37387;42.672;23.334;2023-05-20T04:58:35;947.9;;;23.9;53.9
40013;BME280;37387;42.672;23.334;2023-05-20T04:59:35;947.8;;;24.0;52.2
40013;BME280;37387;42.672;23.334;2023-05-20T05:00:35;947.8;;;24.1;50.6
40013;BME280;37387;42.672;23.334;2023-05-20T05:01:35;947.9;;;25.0;50.5
40013;BME280;37387;42.672;23.334;2023-05-20T05:03:35;947.9;;;25.8;47.8
40013;BME280;37387;42.672;23.334;2023-05-20T05:05:35;947.8;;;24.9;49.0
40013;BME280;37387;42.672;23.334;2023-05-20T05:06:35;947.8;;;24.8;49.0
40013;BME280;37387;42.672;23.334;2023-05-20T05:07:35;947.8;;;25.2;49.4
40013;BME280;37387;42.672;23.334;2023-05-20T05:08:35;947.8;;;24.1;50.6
40013;BME280;37387;42.672;23.334;2023-05-20T05:09:35;947.9;;;23.0;54.6
40013;BME280;37387;42.672;23.334;2023-05-20T05:10:35;947.9;;;23.1;54.6
40013;BME280;37387;42.672;23.334;2023-05-20T05:11:35;947.9;;;23.4;54.8
40013;BME280;37387;42.672;23.334;2023-05-20T05:12:35;947.9;;;23.3;54.1
40013;BME280;37387;42.672;23.334;2023-05-20T05:13:35;947.9;;;22.8;54.4
40013;BME280;37387;42.672;23.334;2023-05-20T05:14:35;947.9;;;23.5;56.8
40013;BME280;37387;42.672;23.334;2023-05-20T05:15:35;947.8;;;24.0;54.4
40013;BME280;37387;42.672;23.334;2023-05-20T05:16:35;947.8;;;24.7;54.4
40013;BME280;37387;42.672;23.334;2023-05-20T05:17:35;947.9;;;25.5;50.2
40013;BME280;37387;42.672;23.334;2023-05-20T05:18:35;947.9;;;25.4;47.9
40013;BME280;37387;42.672;23.334;2023-05-20T05:19:35;947.9;;;26.1;47.9
40013;BME280;37387;42.672;23.334;2023-05-20T05:20:35;947.9;;;26.9;47.7
40013;BME280;37387;42.672;23.334;2023-05-20T05:21:35;948.0;;;26.8;44.7
40013;BME280;37387;42.672;23.334;2023-05-20T05:22:35;947.9;;;27.2;45.3
40013;BME280;37387;42.672;23.334;2023-05-20T05:23:35;948.0;;;28.0;44.7
40013;BME280;37387;42.672;23.334;2023-05-20T05:24:35;948.0;;;26.8;43.3
40013;BME280;37387;42.672;23.334;2023-05-20T05:25:35;947.9;;;26.3;44.3
40013;BME280;37387;42.672;23.334;2023-05-20T05:26:35;947.9;;;25.1;46.2
40013;BME280;37387;42.672;23.334;2023-05-20T05:27:35;947.8;;;24.6;47.8
40013;BME280;37387;42.672;23.334;2023-05-20T05:28:35;947.8;;;25.1;50.3
40013;BME280;37387;42.672;23.334;2023-05-20T05:29:35;947.8;;;26.3;46.8
40013;BME280;37387;42.672;23.334;2023-05-20T05:30:35;947.8;;;26.7;44.7
40013;BME280;37387;42.672;23.334;2023-05-20T05:31:35;947.8;;;25.8;46.5
40013;BME280;37387;42.672;23.334;2023-05-20T05:32:35;947.8;;;25.1;46.5
40013;BME280;37387;42.672;23.334;2023-05-20T05:33:35;947.8;;;26.2;48.7
40013;BME280;37387;42.672;23.334;2023-05-20T05:34:35;947.8;;;27.6;47.2
40013;BME280;37387;42.672;23.334;2023-05-20T05:35:35;947.8;;;28.1;43.8
40013;BME280;37387;42.672;23.334;2023-05-20T05:36:37;947.8;;;26.5;45.0
40013;BME280;37387;42.672;23.334;2023-05-20T05:37:35;947.8;;;25.4;45.0
40013;BME280;37387;42.672;23.334;2023-05-20T05:38:35;947.7;;;26.6;47.5
40013;BME280;37387;42.672;23.334;2023-05-20T05:39:35;947.7;;;25.5;45.5
40013;BME280;37387;42.672;23.334;2023-05-20T05:40:35;947.7;;;25.4;45.6
40013;BME280;37387;42.672;23.334;2023-05-20T05:41:35;947.8;;;26.0;45.9
40013;BME280;37387;42.672;23.334;2023-05-20T05:42:35;947.8;;;26.4;45.9
40013;BME280;37387;42.672;23.334;2023-05-20T05:43:35;947.7;;;25.9;45.3
40013;BME280;37387;42.672;23.334;2023-05-20T05:44:35;947.7;;;25.1;47.9
40013;BME280;37387;42.672;23.334;2023-05-20T05:45:35;947.7;;;24.4;47.9
40013;BME280;37387;42.672;23.334;2023-05-20T05:46:35;947.7;;;24.6;49.3
40013;BME280;37387;42.672;23.334;2023-05-20T05:47:35;947.7;;;24.8;48.7
40013;BME280;37387;42.672;23.334;2023-05-20T05:48:35;947.7;;;24.7;48.7
40013;BME280;37387;42.672;23.334;2023-05-20T05:49:35;947.7;;;25.0;49.9
40013;BME280;37387;42.672;23.334;2023-05-20T05:50:35;947.7;;;24.3;48.0
40013;BME280;37387;42.672;23.334;2023-05-20T05:52:35;947.7;;;24.9;49.2
40013;BME280;37387;42.672;23.334;2023-05-20T05:54:35;947.8;;;25.1;47.6
40013;BME280;37387;42.672;23.334;2023-05-20T05:55:35;947.7;;;25.2;47.4
40013;BME280;37387;42.672;23.334;2023-05-20T05:56:35;947.7;;;26.1;47.3
40013;BME280;37387;42.672;23.334;2023-05-20T05:57:35;947.7;;;25.7;46.2
40013;BME280;37387;42.672;23.334;2023-05-20T05:58:35;947.7;;;26.1;46.5
40013;BME280;37387;42.672;23.334;2023-05-20T05:59:35;947.7;;;25.8;47.0
40013;BME280;37387;42.672;23.334;2023-05-20T06:00:35;947.7;;;26.5;47.0
40013;BME280;37387;42.672;23.334;2023-05-20T06:01:35;947.7;;;26.2;46.4
40013;BME280;37387;42.672;23.334;2023-05-20T06:02:35;947.7;;;26.4;46.4
40013;BME280;37387;42.672;23.334;2023-05-20T06:03:35;947.7;;;26.3;46.0
40013;BME280;37387;42.672;23.334;2023-05-20T06:04:35;947.7;;;26.2;45.8
40013;BME280;37387;42.672;23.334;2023-05-20T06:06:35;947.7;;;27.0;46.4
40013;BME280;37387;42.672;23.334;2023-05-20T06:07:35;947.7;;;27.3;44.6
40013;BME280;37387;42.672;23.334;2023-05-20T06:08:35;947.7;;;26.6;43.0
40013;BME280;37387;42.672;23.334;2023-05-20T06:09:35;947.6;;;27.4;44.9
40013;BME280;37387;42.672;23.334;2023-05-20T06:10:35;947.7;;;27.3;42.2
40013;BME280;37387;42.672;23.334;2023-05-20T06:11:35;947.6;;;27.6;42.7
40013;BME280;37387;42.672;23.334;2023-05-20T06:12:35;947.6;;;27.4;42.0
40013;BME280;37387;42.672;23.334;2023-05-20T06:13:35;947.6;;;26.6;41.8
40013;BME280;37387;42.672;23.334;2023-05-20T06:14:35;947.6;;;25.5;43.9
40013;BME280;37387;42.672;23.334;2023-05-20T06:15:35;947.5;;;26.0;47.2
40013;BME280;37387;42.672;23.334;2023-05-20T06:16:35;947.6;;;26.9;46.9
40013;BME280;37387;42.672;23.334;2023-05-20T06:17:35;947.6;;;26.2;44.7
40013;BME280;37387;42.672;23.334;2023-05-20T06:18:35;947.5;;;26.0;45.9
40013;BME280;37387;42.672;23.334;2023-05-20T06:19:35;947.5;;;25.7;46.1
40013;BME280;37387;42.672;23.334;2023-05-20T06:20:35;947.5;;;26.8;45.9
40013;BME280;37387;42.672;23.334;2023-05-20T06:21:35;947.6;;;28.0;44.4
40013;BME280;37387;42.672;23.334;2023-05-20T06:22:35;947.6;;;27.1;42.1
40013;BME280;37387;42.672;23.334;2023-05-20T06:23:35;947.6;;;26.6;41.8
40013;BME280;37387;42.672;23.334;2023-05-20T06:24:35;947.6;;;26.7;43.1
40013;BME280;37387;42.672;23.334;2023-05-20T06:25:35;947.6;;;27.7;42.0
40013;BME280;37387;42.672;23.334;2023-05-20T06:26:35;947.6;;;28.5;39.0
40013;BME280;37387;42.672;23.334;2023-05-20T06:27:35;947.6;;;28.4;39.0
40013;BME280;37387;42.672;23.334;2023-05-20T06:28:35;947.6;;;27.9;39.6
40013;BME280;37387;42.672;23.334;2023-05-20T06:29:35;947.6;;;27.8;40.4
40013;BME280;37387;42.672;23.334;2023-05-20T06:30:35;947.6;;;27.0;39.9
40013;BME280;37387;42.672;23.334;2023-05-20T06:31:35;947.6;;;27.2;41.4
40013;BME280;37387;42.672;23.334;2023-05-20T06:32:35;947.6;;;28.1;41.6
40013;BME280;37387;42.672;23.334;2023-05-20T06:33:35;947.5;;;27.9;40.5
40013;BME280;37387;42.672;23.334;2023-05-20T06:34:35;947.5;;;27.0;39.5
40013;BME280;37387;42.672;23.334;2023-05-20T06:35:35;947.4;;;26.5;40.7
40013;BME280;37387;42.672;23.334;2023-05-20T06:36:35;947.4;;;26.3;40.7
40013;BME280;37387;42.672;23.334;2023-05-20T06:37:35;947.4;;;26.7;41.7
40013;BME280;37387;42.672;23.334;2023-05-20T06:38:35;947.4;;;26.6;42.2
40013;BME280;37387;42.672;23.334;2023-05-20T06:39:35;947.3;;;26.3;41.1
40013;BME280;37387;42.672;23.334;2023-05-20T06:40:35;947.3;;;26.4;41.9
40013;BME280;37387;42.672;23.334;2023-05-20T06:41:35;947.3;;;26.2;41.6
40013;BME280;37387;42.672;23.334;2023-05-20T06:42:35;947.3;;;25.7;40.0
40013;BME280;37387;42.672;23.334;2023-05-20T06:43:35;947.3;;;26.4;40.4
40013;BME280;37387;42.672;23.334;2023-05-20T06:44:35;947.3;;;26.7;40.7
40013;BME280;37387;42.672;23.334;2023-05-20T06:45:35;947.3;;;26.1;39.7
40013;BME280;37387;42.672;23.334;2023-05-20T06:46:35;947.3;;;27.2;39.5
40013;BME280;37387;42.672;23.334;2023-05-20T06:47:35;947.3;;;27.6;39.0
40013;BME280;37387;42.672;23.334;2023-05-20T06:48:35;947.3;;;27.9;38.6
40013;BME280;37387;42.672;23.334;2023-05-20T06:49:35;947.2;;;28.6;37.7
40013;BME280;37387;42.672;23.334;2023-05-20T06:50:35;947.2;;;26.6;37.2
40013;BME280;37387;42.672;23.334;2023-05-20T06:52:35;947.2;;;26.8;40.7
40013;BME280;37387;42.672;23.334;2023-05-20T06:53:35;947.3;;;25.4;40.8
40013;BME280;37387;42.672;23.334;2023-05-20T06:54:36;947.2;;;24.8;42.0
40013;BME280;37387;42.672;23.334;2023-05-20T06:55:36;947.2;;;26.4;43.2
40013;BME280;37387;42.672;23.334;2023-05-20T06:56:35;947.3;;;26.5;41.1
40013;BME280;37387;42.672;23.334;2023-05-20T06:57:35;947.3;;;27.0;40.5
40013;BME280;37387;42.672;23.334;2023-05-20T06:58:35;947.3;;;26.3;40.2
40013;BME280;37387;42.672;23.334;2023-05-20T06:59:35;947.4;;;27.1;40.9
40013;BME280;37387;42.672;23.334;2023-05-20T07:00:35;947.4;;;26.0;40.0
40013;BME280;37387;42.672;23.334;2023-05-20T07:01:35;947.3;;;25.9;41.5
40013;BME280;37387;42.672;23.334;2023-05-20T07:02:35;947.4;;;26.7;41.5
40013;BME280;37387;42.672;23.334;2023-05-20T07:03:35;947.4;;;26.8;41.1
40013;BME280;37387;42.672;23.334;2023-05-20T07:04:35;947.4;;;27.4;39.3
40013;BME280;37387;42.672;23.334;2023-05-20T07:05:35;947.4;;;28.3;38.2
40013;BME280;37387;42.672;23.334;2023-05-20T07:06:35;947.4;;;28.1;37.3
40013;BME280;37387;42.672;23.334;2023-05-20T07:07:35;947.3;;;26.7;39.2
40013;BME280;37387;42.672;23.334;2023-05-20T07:08:35;947.3;;;27.2;39.2
40013;BME280;37387;42.672;23.334;2023-05-20T07:09:35;947.3;;;27.8;38.2
40013;BME280;37387;42.672;23.334;2023-05-20T07:10:35;947.3;;;27.9;38.2
40013;BME280;37387;42.672;23.334;2023-05-20T07:11:35;947.2;;;27.8;37.5
40013;BME280;37387;42.672;23.334;2023-05-20T07:12:35;947.3;;;28.5;38.0
40013;BME280;37387;42.672;23.334;2023-05-20T07:13:35;947.2;;;28.2;37.7
40013;BME280;37387;42.672;23.334;2023-05-20T07:14:35;947.2;;;27.6;37.7
40013;BME280;37387;42.672;23.334;2023-05-20T07:15:35;947.3;;;27.3;37.7
40013;BME280;37387;42.672;23.334;2023-05-20T07:16:35;947.2;;;25.8;38.0
40013;BME280;37387;42.672;23.334;2023-05-20T07:17:35;947.1;;;26.3;40.1
40013;BME280;37387;42.672;23.334;2023-05-20T07:18:35;947.2;;;25.5;40.8
40013;BME280;37387;42.672;23.334;2023-05-20T07:19:35;947.1;;;23.7;45.9
40013;BME280;37387;42.672;23.334;2023-05-20T07:20:35;947.1;;;24.1;45.9
40013;BME280;37387;42.672;23.334;2023-05-20T07:21:35;947.1;;;23.0;44.9
40013;BME280;37387;42.672;23.334;2023-05-20T07:22:35;947.1;;;24.2;46.5
40013;BME280;37387;42.672;23.334;2023-05-20T07:23:35;947.2;;;24.7;44.5
40013;BME280;37387;42.672;23.334;2023-05-20T07:24:35;947.2;;;25.3;43.4
40013;BME280;37387;42.672;23.334;2023-05-20T07:25:35;947.2;;;25.8;43.4
40013;BME280;37387;42.672;23.334;2023-05-20T07:26:35;947.2;;;25.4;43.4
40013;BME280;37387;42.672;23.334;2023-05-20T07:27:35;947.1;;;24.5;43.8
40013;BME280;37387;42.672;23.334;2023-05-20T07:28:35;947.0;;;23.2;43.8
40013;BME280;37387;42.672;23.334;2023-05-20T07:29:35;947.0;;;23.8;46.4
40013;BME280;37387;42.672;23.334;2023-05-20T07:30:35;947.0;;;24.5;46.3
40013;BME280;37387;42.672;23.334;2023-05-20T07:31:35;947.0;;;25.0;45.5
40013;BME280;37387;42.672;23.334;2023-05-20T07:32:35;947.0;;;24.2;43.7
40013;BME280;37387;42.672;23.334;2023-05-20T07:33:35;947.0;;;22.9;46.1
40013;BME280;37387;42.672;23.334;2023-05-20T07:34:35;947.0;;;23.2;46.1
40013;BME280;37387;42.672;23.334;2023-05-20T07:35:35;947.0;;;24.6;45.1
40013;BME280;37387;42.672;23.334;2023-05-20T07:36:35;947.0;;;24.8;43.2
40013;BME280;37387;42.672;23.334;2023-05-20T07:37:35;947.1;;;25.1;43.3
40013;BME280;37387;42.672;23.334;2023-05-20T07:38:35;947.1;;;25.3;42.5
40013;BME280;37387;42.672;23.334;2023-05-20T07:39:35;947.1;;;25.4;41.9
40013;BME280;37387;42.672;23.334;2023-05-20T07:40:35;947.2;;;26.5;42.1
40013;BME280;37387;42.672;23.334;2023-05-20T07:42:35;947.2;;;27.6;39.7
40013;BME280;37387;42.672;23.334;2023-05-20T07:43:35;947.2;;;27.0;38.3
40013;BME280;37387;42.672;23.334;2023-05-20T07:45:35;947.2;;;26.9;38.4
40013;BME280;37387;42.672;23.334;2023-05-20T07:46:35;947.2;;;28.0;38.4
40013;BME280;37387;42.672;23.334;2023-05-20T07:47:35;947.3;;;28.4;36.6
40013;BME280;37387;42.672;23.334;2023-05-20T07:48:35;947.2;;;27.7;37.3
40013;BME280;37387;42.672;23.334;2023-05-20T07:49:35;947.2;;;26.4;37.3
40013;BME280;37387;42.672;23.334;2023-05-20T07:50:35;947.2;;;26.9;39.1
40013;BME280;37387;42.672;23.334;2023-05-20T07:51:35;947.1;;;25.9;39.1
40013;BME280;37387;42.672;23.334;2023-05-20T07:52:35;947.1;;;25.8;39.8
40013;BME280;37387;42.672;23.334;2023-05-20T07:53:35;947.1;;;26.7;40.6
40013;BME280;37387;42.672;23.334;2023-05-20T07:54:35;947.1;;;27.6;38.5
40013;BME280;37387;42.672;23.334;2023-05-20T07:55:35;947.1;;;27.9;36.6
40013;BME280;37387;42.672;23.334;2023-05-20T07:56:35;947.1;;;27.8;35.6
40013;BME280;37387;42.672;23.334;2023-05-20T07:57:35;947.1;;;27.5;35.0
40013;BME280;37387;42.672;23.334;2023-05-20T07:58:35;947.2;;;27.7;36.2
40013;BME280;37387;42.672;23.334;2023-05-20T07:59:35;947.1;;;27.9;36.7
40013;BME280;37387;42.672;23.334;2023-05-20T08:00:35;947.1;;;27.6;35.4
40013;BME280;37387;42.672;23.334;2023-05-20T08:01:35;947.1;;;26.9;36.1
40013;BME280;37387;42.672;23.334;2023-05-20T08:02:35;947.1;;;26.7;37.2
40013;BME280;37387;42.672;23.334;2023-05-20T08:03:35;947.0;;;25.6;37.2
40013;BME280;37387;42.672;23.334;2023-05-20T08:04:35;947.1;;;26.0;38.6
40013;BME280;37387;42.672;23.334;2023-05-20T08:05:35;947.1;;;25.8;38.6
40013;BME280;37387;42.672;23.334;2023-05-20T08:06:35;947.0;;;26.5;39.2
40013;BME280;37387;42.672;23.334;2023-05-20T08:07:35;947.0;;;26.4;38.8